sensor_id;sensor_type;location;lat;lon;timestamp;P1;durP1;ratioP1;P2;durP2;ratioP2
22490;SDS011;11412;50.802;4.350;2022-12-29T00:01:30;0.90;;;0.90;;
22490;SDS011;11412;50.802;4.350;2022-12-29T00:03:57;1.10;;;1.00;;
22490;SDS011;11412;50.802;4.350;2022-12-29T00:06:23;1.15;;;0.80;;
22490;SDS011;11412;50.802;4.350;2022-12-29T00:08:49;1.05;;;0.80;;
22490;SDS011;11412;50.802;4.350;2022-12-29T00:11:15;2.58;;;0.63;;
22490;SDS011;11412;50.802;4.350;2022-12-29T00:13:43;2.25;;;0.90;;
22490;SDS011;11412;50.802;4.350;2022-12-29T00:16:27;0.85;;;0.60;;
22490;SDS011;11412;50.802;4.350;2022-12-29T00:18:54;0.68;;;0.55;;
22490;SDS011;11412;50.802;4.350;2022-12-29T00:21:21;0.57;;;0.50;;
22490;SDS011;11412;50.802;4.350;2022-12-29T00:24:08;1.58;;;0.90;;
22490;SDS011;11412;50.802;4.350;2022-12-29T00:29:42;2.10;;;0.80;;
22490;SDS011;11412;50.802;4.350;2022-12-29T00:32:26;1.45;;;0.80;;
22490;SDS011;11412;50.802;4.350;2022-12-29T00:35:11;0.50;;;0.47;;
22490;SDS011;11412;50.802;4.350;2022-12-29T00:37:43;3.05;;;0.50;;
22490;SDS011;11412;50.802;4.350;2022-12-29T00:40:31;2.42;;;0.60;;
22490;SDS011;11412;50.802;4.350;2022-12-29T00:43:15;1.57;;;0.83;;
22490;SDS011;11412;50.802;4.350;2022-12-29T00:45:59;2.38;;;0.80;;
22490;SDS011;11412;50.802;4.350;2022-12-29T00:48:25;2.35;;;0.60;;
22490;SDS011;11412;50.802;4.350;2022-12-29T00:51:10;3.15;;;0.80;;
22490;SDS011;11412;50.802;4.350;2022-12-29T00:53:35;2.25;;;0.70;;
22490;SDS011;11412;50.802;4.350;2022-12-29T00:56:01;3.13;;;0.80;;
22490;SDS011;11412;50.802;4.350;2022-12-29T00:58:27;2.75;;;0.70;;
22490;SDS011;11412;50.802;4.350;2022-12-29T01:01:03;3.72;;;0.98;;
22490;SDS011;11412;50.802;4.350;2022-12-29T01:03:32;2.42;;;1.00;;
22490;SDS011;11412;50.802;4.350;2022-12-29T01:06:05;3.10;;;0.80;;
22490;SDS011;11412;50.802;4.350;2022-12-29T01:08:32;3.58;;;0.77;;
22490;SDS011;11412;50.802;4.350;2022-12-29T01:10:58;3.60;;;0.88;;
22490;SDS011;11412;50.802;4.350;2022-12-29T01:13:25;1.25;;;0.55;;
22490;SDS011;11412;50.802;4.350;2022-12-29T01:15:51;1.42;;;0.65;;
22490;SDS011;11412;50.802;4.350;2022-12-29T01:18:17;6.40;;;0.85;;
22490;SDS011;11412;50.802;4.350;2022-12-29T01:20:43;0.73;;;0.70;;
22490;SDS011;11412;50.802;4.350;2022-12-29T01:23:09;2.97;;;0.95;;
22490;SDS011;11412;50.802;4.350;2022-12-29T01:25:34;3.95;;;1.05;;
22490;SDS011;11412;50.802;4.350;2022-12-29T01:28:00;3.13;;;0.85;;
22490;SDS011;11412;50.802;4.350;2022-12-29T01:30:25;2.40;;;0.90;;
22490;SDS011;11412;50.802;4.350;2022-12-29T01:32:51;1.75;;;0.75;;
22490;SDS011;11412;50.802;4.350;2022-12-29T01:35:17;2.42;;;1.02;;
22490;SDS011;11412;50.802;4.350;2022-12-29T01:37:42;1.52;;;1.17;;
22490;SDS011;11412;50.802;4.350;2022-12-29T01:40:08;1.85;;;0.80;;
22490;SDS011;11412;50.802;4.350;2022-12-29T01:42:34;3.85;;;1.13;;
22490;SDS011;11412;50.802;4.350;2022-12-29T01:45:02;2.80;;;1.00;;
22490;SDS011;11412;50.802;4.350;2022-12-29T01:47:48;1.05;;;0.73;;
22490;SDS011;11412;50.802;4.350;2022-12-29T01:50:20;3.20;;;0.80;;
22490;SDS011;11412;50.802;4.350;2022-12-29T01:53:01;2.08;;;0.85;;
22490;SDS011;11412;50.802;4.350;2022-12-29T01:55:53;1.10;;;0.50;;
22490;SDS011;11412;50.802;4.350;2022-12-29T02:00:52;0.60;;;0.60;;
22490;SDS011;11412;50.802;4.350;2022-12-29T02:03:18;2.40;;;0.52;;
22490;SDS011;11412;50.802;4.350;2022-12-29T02:10:47;2.55;;;0.47;;
22490;SDS011;11412;50.802;4.350;2022-12-29T02:13:15;1.95;;;0.60;;
22490;SDS011;11412;50.802;4.350;2022-12-29T02:18:29;3.13;;;0.50;;
22490;SDS011;11412;50.802;4.350;2022-12-29T02:32:03;5.03;;;0.80;;
22490;SDS011;11412;50.802;4.350;2022-12-29T02:37:39;2.03;;;0.65;;
22490;SDS011;11412;50.802;4.350;2022-12-29T02:42:50;1.63;;;0.40;;
22490;SDS011;11412;50.802;4.350;2022-12-29T02:45:37;2.38;;;0.52;;
22490;SDS011;11412;50.802;4.350;2022-12-29T02:51:04;3.05;;;0.47;;
22490;SDS011;11412;50.802;4.350;2022-12-29T02:53:37;2.67;;;0.30;;
22490;SDS011;11412;50.802;4.350;2022-12-29T02:56:22;1.40;;;0.40;;
22490;SDS011;11412;50.802;4.350;2022-12-29T02:58:48;2.17;;;0.38;;
22490;SDS011;11412;50.802;4.350;2022-12-29T03:03:56;4.22;;;0.82;;
22490;SDS011;11412;50.802;4.350;2022-12-29T03:09:04;2.15;;;0.52;;
22490;SDS011;11412;50.802;4.350;2022-12-29T03:12:06;1.10;;;0.60;;
22490;SDS011;11412;50.802;4.350;2022-12-29T03:15:20;1.75;;;0.50;;
22490;SDS011;11412;50.802;4.350;2022-12-29T03:18:15;3.20;;;0.80;;
22490;SDS011;11412;50.802;4.350;2022-12-29T03:20:58;2.40;;;0.40;;
22490;SDS011;11412;50.802;4.350;2022-12-29T03:23:31;3.72;;;0.60;;
22490;SDS011;11412;50.802;4.350;2022-12-29T03:26:00;4.70;;;0.77;;
22490;SDS011;11412;50.802;4.350;2022-12-29T03:28:33;1.60;;;0.60;;
22490;SDS011;11412;50.802;4.350;2022-12-29T03:31:03;1.98;;;0.50;;
22490;SDS011;11412;50.802;4.350;2022-12-29T03:33:30;1.23;;;0.50;;
22490;SDS011;11412;50.802;4.350;2022-12-29T03:35:58;1.70;;;0.60;;
22490;SDS011;11412;50.802;4.350;2022-12-29T03:41:00;2.80;;;0.60;;
22490;SDS011;11412;50.802;4.350;2022-12-29T03:43:29;1.58;;;0.43;;
22490;SDS011;11412;50.802;4.350;2022-12-29T03:45:55;2.28;;;0.73;;
22490;SDS011;11412;50.802;4.350;2022-12-29T03:48:21;6.72;;;0.93;;
22490;SDS011;11412;50.802;4.350;2022-12-29T03:50:46;1.98;;;0.60;;
22490;SDS011;11412;50.802;4.350;2022-12-29T03:53:12;2.80;;;0.75;;
22490;SDS011;11412;50.802;4.350;2022-12-29T03:55:38;5.28;;;0.93;;
22490;SDS011;11412;50.802;4.350;2022-12-29T03:58:04;4.18;;;0.90;;
22490;SDS011;11412;50.802;4.350;2022-12-29T04:00:29;3.85;;;1.00;;
22490;SDS011;11412;50.802;4.350;2022-12-29T04:02:55;3.75;;;1.27;;
22490;SDS011;11412;50.802;4.350;2022-12-29T04:05:20;3.60;;;0.70;;
22490;SDS011;11412;50.802;4.350;2022-12-29T04:07:46;6.55;;;0.73;;
22490;SDS011;11412;50.802;4.350;2022-12-29T04:10:12;2.10;;;0.50;;
22490;SDS011;11412;50.802;4.350;2022-12-29T04:12:37;4.05;;;1.05;;
22490;SDS011;11412;50.802;4.350;2022-12-29T04:15:03;4.13;;;0.60;;
22490;SDS011;11412;50.802;4.350;2022-12-29T04:17:29;0.57;;;0.47;;
22490;SDS011;11412;50.802;4.350;2022-12-29T04:19:55;1.20;;;0.63;;
22490;SDS011;11412;50.802;4.350;2022-12-29T04:22:40;5.60;;;0.70;;
22490;SDS011;11412;50.802;4.350;2022-12-29T04:25:06;3.80;;;0.85;;
22490;SDS011;11412;50.802;4.350;2022-12-29T04:27:32;2.08;;;0.90;;
22490;SDS011;11412;50.802;4.350;2022-12-29T04:29:58;3.42;;;1.08;;
22490;SDS011;11412;50.802;4.350;2022-12-29T04:32:23;1.50;;;0.82;;
22490;SDS011;11412;50.802;4.350;2022-12-29T04:34:49;6.40;;;0.82;;
22490;SDS011;11412;50.802;4.350;2022-12-29T04:37:15;5.30;;;0.90;;
22490;SDS011;11412;50.802;4.350;2022-12-29T04:39:40;2.88;;;0.70;;
22490;SDS011;11412;50.802;4.350;2022-12-29T04:42:06;5.18;;;0.80;;
22490;SDS011;11412;50.802;4.350;2022-12-29T04:44:32;6.63;;;1.35;;
22490;SDS011;11412;50.802;4.350;2022-12-29T04:46:57;3.85;;;1.10;;
22490;SDS011;11412;50.802;4.350;2022-12-29T04:49:23;4.43;;;1.10;;
22490;SDS011;11412;50.802;4.350;2022-12-29T04:51:48;6.63;;;1.08;;
22490;SDS011;11412;50.802;4.350;2022-12-29T04:54:14;5.75;;;0.90;;
22490;SDS011;11412;50.802;4.350;2022-12-29T04:56:40;2.90;;;0.77;;
22490;SDS011;11412;50.802;4.350;2022-12-29T04:59:05;3.25;;;0.98;;
22490;SDS011;11412;50.802;4.350;2022-12-29T05:01:31;3.30;;;0.57;;
22490;SDS011;11412;50.802;4.350;2022-12-29T05:03:56;7.20;;;1.15;;
22490;SDS011;11412;50.802;4.350;2022-12-29T05:06:22;4.05;;;0.80;;
22490;SDS011;11412;50.802;4.350;2022-12-29T05:08:48;4.45;;;1.33;;
22490;SDS011;11412;50.802;4.350;2022-12-29T05:11:13;3.80;;;1.02;;
22490;SDS011;11412;50.802;4.350;2022-12-29T05:13:39;3.38;;;1.10;;
22490;SDS011;11412;50.802;4.350;2022-12-29T05:16:05;2.92;;;1.23;;
22490;SDS011;11412;50.802;4.350;2022-12-29T05:18:30;2.65;;;0.80;;
22490;SDS011;11412;50.802;4.350;2022-12-29T05:20:56;6.72;;;0.98;;
22490;SDS011;11412;50.802;4.350;2022-12-29T05:23:22;4.13;;;0.85;;
22490;SDS011;11412;50.802;4.350;2022-12-29T05:25:47;7.60;;;1.50;;
22490;SDS011;11412;50.802;4.350;2022-12-29T05:28:13;7.75;;;0.93;;
22490;SDS011;11412;50.802;4.350;2022-12-29T05:30:39;6.45;;;1.15;;
22490;SDS011;11412;50.802;4.350;2022-12-29T05:33:05;4.43;;;0.88;;
22490;SDS011;11412;50.802;4.350;2022-12-29T05:35:32;2.90;;;0.90;;
22490;SDS011;11412;50.802;4.350;2022-12-29T05:37:57;5.00;;;1.33;;
22490;SDS011;11412;50.802;4.350;2022-12-29T05:40:23;8.65;;;1.50;;
22490;SDS011;11412;50.802;4.350;2022-12-29T05:42:49;6.82;;;1.20;;
22490;SDS011;11412;50.802;4.350;2022-12-29T05:45:14;2.90;;;1.27;;
22490;SDS011;11412;50.802;4.350;2022-12-29T05:47:40;5.95;;;1.13;;
22490;SDS011;11412;50.802;4.350;2022-12-29T05:50:06;3.20;;;1.05;;
22490;SDS011;11412;50.802;4.350;2022-12-29T05:52:32;5.07;;;0.75;;
22490;SDS011;11412;50.802;4.350;2022-12-29T05:54:57;9.35;;;1.65;;
22490;SDS011;11412;50.802;4.350;2022-12-29T05:57:23;6.45;;;1.15;;
22490;SDS011;11412;50.802;4.350;2022-12-29T05:59:48;4.82;;;0.95;;
22490;SDS011;11412;50.802;4.350;2022-12-29T06:02:14;5.80;;;1.13;;
22490;SDS011;11412;50.802;4.350;2022-12-29T06:04:40;3.92;;;1.05;;
22490;SDS011;11412;50.802;4.350;2022-12-29T06:07:05;9.23;;;1.50;;
22490;SDS011;11412;50.802;4.350;2022-12-29T06:09:31;7.95;;;1.92;;
22490;SDS011;11412;50.802;4.350;2022-12-29T06:11:57;6.78;;;1.33;;
22490;SDS011;11412;50.802;4.350;2022-12-29T06:14:22;3.88;;;1.08;;
22490;SDS011;11412;50.802;4.350;2022-12-29T06:16:48;8.18;;;1.27;;
22490;SDS011;11412;50.802;4.350;2022-12-29T06:19:13;6.18;;;1.17;;
22490;SDS011;11412;50.802;4.350;2022-12-29T06:21:39;7.28;;;1.13;;
22490;SDS011;11412;50.802;4.350;2022-12-29T06:24:05;7.00;;;1.30;;
22490;SDS011;11412;50.802;4.350;2022-12-29T06:26:31;8.30;;;1.23;;
22490;SDS011;11412;50.802;4.350;2022-12-29T06:28:56;8.05;;;1.13;;
22490;SDS011;11412;50.802;4.350;2022-12-29T06:31:22;9.30;;;1.48;;
22490;SDS011;11412;50.802;4.350;2022-12-29T06:33:47;5.47;;;1.15;;
22490;SDS011;11412;50.802;4.350;2022-12-29T06:36:13;7.10;;;1.27;;
22490;SDS011;11412;50.802;4.350;2022-12-29T06:38:39;8.85;;;1.50;;
22490;SDS011;11412;50.802;4.350;2022-12-29T06:41:04;5.63;;;1.38;;
22490;SDS011;11412;50.802;4.350;2022-12-29T06:43:30;9.05;;;1.48;;
22490;SDS011;11412;50.802;4.350;2022-12-29T06:45:57;5.53;;;1.25;;
22490;SDS011;11412;50.802;4.350;2022-12-29T06:48:22;8.35;;;1.50;;
22490;SDS011;11412;50.802;4.350;2022-12-29T06:50:48;3.60;;;1.00;;
22490;SDS011;11412;50.802;4.350;2022-12-29T06:53:14;5.18;;;1.00;;
22490;SDS011;11412;50.802;4.350;2022-12-29T06:55:41;8.40;;;1.00;;
22490;SDS011;11412;50.802;4.350;2022-12-29T06:58:07;5.55;;;1.20;;
22490;SDS011;11412;50.802;4.350;2022-12-29T07:00:32;10.20;;;1.45;;
22490;SDS011;11412;50.802;4.350;2022-12-29T07:02:58;7.72;;;1.40;;
22490;SDS011;11412;50.802;4.350;2022-12-29T07:05:24;6.88;;;1.48;;
22490;SDS011;11412;50.802;4.350;2022-12-29T07:07:52;9.15;;;1.52;;
22490;SDS011;11412;50.802;4.350;2022-12-29T07:10:19;10.55;;;1.50;;
22490;SDS011;11412;50.802;4.350;2022-12-29T07:12:44;6.03;;;1.10;;
22490;SDS011;11412;50.802;4.350;2022-12-29T07:15:10;7.63;;;1.40;;
22490;SDS011;11412;50.802;4.350;2022-12-29T07:17:37;7.30;;;1.20;;
22490;SDS011;11412;50.802;4.350;2022-12-29T07:20:03;11.45;;;1.75;;
22490;SDS011;11412;50.802;4.350;2022-12-29T07:22:29;5.00;;;1.25;;
22490;SDS011;11412;50.802;4.350;2022-12-29T07:24:55;6.30;;;1.20;;
22490;SDS011;11412;50.802;4.350;2022-12-29T07:27:20;10.07;;;1.70;;
22490;SDS011;11412;50.802;4.350;2022-12-29T07:29:46;7.97;;;2.13;;
22490;SDS011;11412;50.802;4.350;2022-12-29T07:32:12;10.15;;;1.75;;
22490;SDS011;11412;50.802;4.350;2022-12-29T07:34:37;5.40;;;1.67;;
22490;SDS011;11412;50.802;4.350;2022-12-29T07:37:04;10.82;;;1.40;;
22490;SDS011;11412;50.802;4.350;2022-12-29T07:39:30;7.85;;;1.23;;
22490;SDS011;11412;50.802;4.350;2022-12-29T07:41:56;8.38;;;1.95;;
22490;SDS011;11412;50.802;4.350;2022-12-29T07:44:22;11.55;;;1.98;;
22490;SDS011;11412;50.802;4.350;2022-12-29T07:46:47;6.68;;;1.50;;
22490;SDS011;11412;50.802;4.350;2022-12-29T07:49:13;16.88;;;3.58;;
22490;SDS011;11412;50.802;4.350;2022-12-29T07:51:38;8.35;;;1.25;;
22490;SDS011;11412;50.802;4.350;2022-12-29T07:54:04;9.57;;;2.00;;
22490;SDS011;11412;50.802;4.350;2022-12-29T07:56:30;6.88;;;1.73;;
22490;SDS011;11412;50.802;4.350;2022-12-29T07:58:55;6.80;;;1.33;;
22490;SDS011;11412;50.802;4.350;2022-12-29T08:01:21;9.25;;;1.58;;
22490;SDS011;11412;50.802;4.350;2022-12-29T08:03:48;8.40;;;1.30;;
22490;SDS011;11412;50.802;4.350;2022-12-29T08:06:14;8.43;;;1.85;;
22490;SDS011;11412;50.802;4.350;2022-12-29T08:08:39;5.57;;;1.40;;
22490;SDS011;11412;50.802;4.350;2022-12-29T08:11:05;8.68;;;2.00;;
22490;SDS011;11412;50.802;4.350;2022-12-29T08:13:31;8.93;;;1.35;;
22490;SDS011;11412;50.802;4.350;2022-12-29T08:15:59;7.05;;;1.65;;
22490;SDS011;11412;50.802;4.350;2022-12-29T08:18:25;6.88;;;1.52;;
22490;SDS011;11412;50.802;4.350;2022-12-29T08:20:50;9.63;;;2.10;;
22490;SDS011;11412;50.802;4.350;2022-12-29T08:23:16;10.68;;;1.60;;
22490;SDS011;11412;50.802;4.350;2022-12-29T08:25:42;8.30;;;1.63;;
22490;SDS011;11412;50.802;4.350;2022-12-29T08:28:07;8.05;;;1.63;;
22490;SDS011;11412;50.802;4.350;2022-12-29T08:30:33;7.43;;;1.38;;
22490;SDS011;11412;50.802;4.350;2022-12-29T08:32:59;10.50;;;1.58;;
22490;SDS011;11412;50.802;4.350;2022-12-29T08:35:24;7.38;;;1.50;;
22490;SDS011;11412;50.802;4.350;2022-12-29T08:37:50;7.07;;;1.63;;
22490;SDS011;11412;50.802;4.350;2022-12-29T08:40:16;6.15;;;1.30;;
22490;SDS011;11412;50.802;4.350;2022-12-29T08:42:41;9.57;;;2.30;;
22490;SDS011;11412;50.802;4.350;2022-12-29T08:45:07;6.72;;;1.55;;
22490;SDS011;11412;50.802;4.350;2022-12-29T08:47:34;8.10;;;1.45;;
22490;SDS011;11412;50.802;4.350;2022-12-29T08:50:00;8.35;;;1.60;;
22490;SDS011;11412;50.802;4.350;2022-12-29T08:52:26;11.52;;;1.75;;
22490;SDS011;11412;50.802;4.350;2022-12-29T08:54:51;9.80;;;1.83;;
22490;SDS011;11412;50.802;4.350;2022-12-29T08:57:17;7.90;;;2.33;;
22490;SDS011;11412;50.802;4.350;2022-12-29T08:59:43;10.15;;;1.80;;
22490;SDS011;11412;50.802;4.350;2022-12-29T09:02:12;8.30;;;1.50;;
22490;SDS011;11412;50.802;4.350;2022-12-29T09:04:38;9.70;;;1.83;;
22490;SDS011;11412;50.802;4.350;2022-12-29T09:07:03;7.53;;;1.50;;
22490;SDS011;11412;50.802;4.350;2022-12-29T09:09:30;12.48;;;2.00;;
22490;SDS011;11412;50.802;4.350;2022-12-29T09:11:56;13.02;;;2.00;;
22490;SDS011;11412;50.802;4.350;2022-12-29T09:14:21;9.32;;;1.42;;
22490;SDS011;11412;50.802;4.350;2022-12-29T09:16:47;9.70;;;1.65;;
22490;SDS011;11412;50.802;4.350;2022-12-29T09:19:34;13.63;;;3.22;;
22490;SDS011;11412;50.802;4.350;2022-12-29T09:22:00;12.57;;;2.10;;
22490;SDS011;11412;50.802;4.350;2022-12-29T09:24:25;9.13;;;1.70;;
22490;SDS011;11412;50.802;4.350;2022-12-29T09:26:51;11.27;;;1.88;;
22490;SDS011;11412;50.802;4.350;2022-12-29T09:29:17;10.68;;;2.53;;
22490;SDS011;11412;50.802;4.350;2022-12-29T09:31:42;9.15;;;2.13;;
22490;SDS011;11412;50.802;4.350;2022-12-29T09:34:08;10.40;;;1.83;;
22490;SDS011;11412;50.802;4.350;2022-12-29T09:36:34;8.13;;;1.70;;
22490;SDS011;11412;50.802;4.350;2022-12-29T09:38:59;12.25;;;1.92;;
22490;SDS011;11412;50.802;4.350;2022-12-29T09:41:26;5.93;;;1.63;;
22490;SDS011;11412;50.802;4.350;2022-12-29T09:46:43;8.73;;;2.08;;
22490;SDS011;11412;50.802;4.350;2022-12-29T09:49:21;9.05;;;2.15;;
22490;SDS011;11412;50.802;4.350;2022-12-29T09:51:55;9.63;;;1.70;;
22490;SDS011;11412;50.802;4.350;2022-12-29T09:54:36;8.98;;;2.03;;
22490;SDS011;11412;50.802;4.350;2022-12-29T09:57:24;6.65;;;1.63;;
22490;SDS011;11412;50.802;4.350;2022-12-29T10:00:13;9.93;;;1.90;;
22490;SDS011;11412;50.802;4.350;2022-12-29T10:02:46;14.25;;;2.75;;
22490;SDS011;11412;50.802;4.350;2022-12-29T10:08:03;10.30;;;2.38;;
22490;SDS011;11412;50.802;4.350;2022-12-29T10:10:56;10.88;;;1.67;;
22490;SDS011;11412;50.802;4.350;2022-12-29T10:13:47;10.88;;;1.52;;
22490;SDS011;11412;50.802;4.350;2022-12-29T10:19:23;13.38;;;2.50;;
22490;SDS011;11412;50.802;4.350;2022-12-29T10:27:12;9.93;;;2.00;;
22490;SDS011;11412;50.802;4.350;2022-12-29T10:29:42;11.95;;;2.13;;
22490;SDS011;11412;50.802;4.350;2022-12-29T10:32:34;10.13;;;2.53;;
22490;SDS011;11412;50.802;4.350;2022-12-29T10:35:06;12.77;;;1.95;;
22490;SDS011;11412;50.802;4.350;2022-12-29T10:43:43;10.90;;;1.80;;
22490;SDS011;11412;50.802;4.350;2022-12-29T10:46:23;11.80;;;2.33;;
22490;SDS011;11412;50.802;4.350;2022-12-29T10:48:53;10.70;;;2.53;;
22490;SDS011;11412;50.802;4.350;2022-12-29T10:51:22;9.13;;;1.85;;
22490;SDS011;11412;50.802;4.350;2022-12-29T10:54:36;10.43;;;2.28;;
22490;SDS011;11412;50.802;4.350;2022-12-29T10:56:43;5.78;;;1.65;;
22490;SDS011;11412;50.802;4.350;2022-12-29T11:02:11;8.02;;;2.03;;
22490;SDS011;11412;50.802;4.350;2022-12-29T11:07:21;8.07;;;2.00;;
22490;SDS011;11412;50.802;4.350;2022-12-29T11:09:48;13.93;;;2.30;;
22490;SDS011;11412;50.802;4.350;2022-12-29T11:12:21;10.45;;;2.03;;
22490;SDS011;11412;50.802;4.350;2022-12-29T11:17:48;12.70;;;2.22;;
22490;SDS011;11412;50.802;4.350;2022-12-29T11:20:35;11.38;;;2.35;;
22490;SDS011;11412;50.802;4.350;2022-12-29T11:23:24;11.82;;;2.25;;
22490;SDS011;11412;50.802;4.350;2022-12-29T11:26:06;12.57;;;2.03;;
22490;SDS011;11412;50.802;4.350;2022-12-29T11:28:31;10.20;;;1.90;;
22490;SDS011;11412;50.802;4.350;2022-12-29T11:31:01;8.93;;;1.63;;
22490;SDS011;11412;50.802;4.350;2022-12-29T11:33:29;9.80;;;1.95;;
22490;SDS011;11412;50.802;4.350;2022-12-29T11:35:57;8.32;;;2.03;;
22490;SDS011;11412;50.802;4.350;2022-12-29T11:38:33;8.45;;;1.70;;
22490;SDS011;11412;50.802;4.350;2022-12-29T11:41:01;8.20;;;2.08;;
22490;SDS011;11412;50.802;4.350;2022-12-29T11:43:32;8.07;;;1.70;;
22490;SDS011;11412;50.802;4.350;2022-12-29T11:46:02;7.40;;;2.03;;
22490;SDS011;11412;50.802;4.350;2022-12-29T11:48:33;14.45;;;1.83;;
22490;SDS011;11412;50.802;4.350;2022-12-29T11:51:04;7.45;;;1.85;;
22490;SDS011;11412;50.802;4.350;2022-12-29T11:53:47;12.38;;;2.25;;
22490;SDS011;11412;50.802;4.350;2022-12-29T11:56:32;11.50;;;2.10;;
22490;SDS011;11412;50.802;4.350;2022-12-29T11:59:21;9.98;;;1.83;;
22490;SDS011;11412;50.802;4.350;2022-12-29T12:01:49;14.35;;;2.10;;
22490;SDS011;11412;50.802;4.350;2022-12-29T12:04:16;9.18;;;1.77;;
22490;SDS011;11412;50.802;4.350;2022-12-29T12:06:45;11.82;;;2.35;;
22490;SDS011;11412;50.802;4.350;2022-12-29T12:09:35;11.52;;;1.52;;
22490;SDS011;11412;50.802;4.350;2022-12-29T12:12:08;8.07;;;1.83;;
22490;SDS011;11412;50.802;4.350;2022-12-29T12:14:46;9.32;;;2.33;;
22490;SDS011;11412;50.802;4.350;2022-12-29T12:17:31;12.90;;;2.17;;
22490;SDS011;11412;50.802;4.350;2022-12-29T12:22:43;8.57;;;1.65;;
22490;SDS011;11412;50.802;4.350;2022-12-29T12:25:50;14.13;;;2.55;;
22490;SDS011;11412;50.802;4.350;2022-12-29T12:30:43;9.77;;;1.92;;
22490;SDS011;11412;50.802;4.350;2022-12-29T12:36:09;7.07;;;2.20;;
22490;SDS011;11412;50.802;4.350;2022-12-29T12:49:30;17.25;;;1.98;;
22490;SDS011;11412;50.802;4.350;2022-12-29T13:00:17;10.85;;;2.50;;
22490;SDS011;11412;50.802;4.350;2022-12-29T13:02:49;6.32;;;1.58;;
22490;SDS011;11412;50.802;4.350;2022-12-29T13:16:27;9.65;;;1.90;;
22490;SDS011;11412;50.802;4.350;2022-12-29T13:19:49;10.90;;;1.85;;
22490;SDS011;11412;50.802;4.350;2022-12-29T13:27:46;8.35;;;1.80;;
22490;SDS011;11412;50.802;4.350;2022-12-29T13:30:19;12.35;;;2.33;;
22490;SDS011;11412;50.802;4.350;2022-12-29T13:32:58;10.15;;;1.90;;
22490;SDS011;11412;50.802;4.350;2022-12-29T13:41:37;6.50;;;1.50;;
22490;SDS011;11412;50.802;4.350;2022-12-29T13:44:09;8.85;;;2.20;;
22490;SDS011;11412;50.802;4.350;2022-12-29T13:46:42;8.65;;;1.98;;
22490;SDS011;11412;50.802;4.350;2022-12-29T13:49:17;6.78;;;1.88;;
22490;SDS011;11412;50.802;4.350;2022-12-29T13:54:24;8.82;;;1.83;;
22490;SDS011;11412;50.802;4.350;2022-12-29T14:00:03;7.95;;;2.10;;
22490;SDS011;11412;50.802;4.350;2022-12-29T14:07:47;9.98;;;2.22;;
22490;SDS011;11412;50.802;4.350;2022-12-29T14:13:11;12.20;;;2.08;;
22490;SDS011;11412;50.802;4.350;2022-12-29T14:15:43;12.30;;;2.42;;
22490;SDS011;11412;50.802;4.350;2022-12-29T14:18:11;9.32;;;2.00;;
22490;SDS011;11412;50.802;4.350;2022-12-29T14:20:39;9.07;;;2.03;;
22490;SDS011;11412;50.802;4.350;2022-12-29T14:23:15;10.30;;;1.80;;
22490;SDS011;11412;50.802;4.350;2022-12-29T14:25:59;11.48;;;2.67;;
22490;SDS011;11412;50.802;4.350;2022-12-29T14:28:32;11.90;;;2.20;;
22490;SDS011;11412;50.802;4.350;2022-12-29T14:31:51;10.85;;;1.90;;
22490;SDS011;11412;50.802;4.350;2022-12-29T14:36:37;6.93;;;2.03;;
22490;SDS011;11412;50.802;4.350;2022-12-29T14:39:03;13.32;;;2.70;;
22490;SDS011;11412;50.802;4.350;2022-12-29T14:41:58;12.23;;;2.10;;
22490;SDS011;11412;50.802;4.350;2022-12-29T14:44:31;10.52;;;2.45;;
22490;SDS011;11412;50.802;4.350;2022-12-29T14:46:58;11.95;;;1.88;;
22490;SDS011;11412;50.802;4.350;2022-12-29T14:49:30;12.48;;;2.60;;
22490;SDS011;11412;50.802;4.350;2022-12-29T14:57:40;10.70;;;2.25;;
22490;SDS011;11412;50.802;4.350;2022-12-29T15:02:40;11.50;;;2.28;;
22490;SDS011;11412;50.802;4.350;2022-12-29T15:08:02;10.07;;;1.90;;
22490;SDS011;11412;50.802;4.350;2022-12-29T15:10:32;5.70;;;1.65;;
22490;SDS011;11412;50.802;4.350;2022-12-29T15:13:13;5.93;;;1.23;;
22490;SDS011;11412;50.802;4.350;2022-12-29T15:15:42;7.38;;;1.73;;
22490;SDS011;11412;50.802;4.350;2022-12-29T15:18:40;6.22;;;1.58;;
22490;SDS011;11412;50.802;4.350;2022-12-29T15:21:00;3.30;;;0.68;;
22490;SDS011;11412;50.802;4.350;2022-12-29T15:23:31;3.50;;;1.17;;
22490;SDS011;11412;50.802;4.350;2022-12-29T15:26:03;4.40;;;1.10;;
22490;SDS011;11412;50.802;4.350;2022-12-29T15:31:10;2.83;;;1.02;;
22490;SDS011;11412;50.802;4.350;2022-12-29T15:33:45;3.30;;;0.82;;
22490;SDS011;11412;50.802;4.350;2022-12-29T15:36:20;3.20;;;1.00;;
22490;SDS011;11412;50.802;4.350;2022-12-29T15:38:47;4.60;;;1.05;;
22490;SDS011;11412;50.802;4.350;2022-12-29T15:41:25;4.57;;;1.20;;
22490;SDS011;11412;50.802;4.350;2022-12-29T15:46:39;4.78;;;1.20;;
22490;SDS011;11412;50.802;4.350;2022-12-29T15:49:08;3.33;;;1.15;;
22490;SDS011;11412;50.802;4.350;2022-12-29T15:51:38;4.25;;;1.40;;
22490;SDS011;11412;50.802;4.350;2022-12-29T15:54:04;6.75;;;1.52;;
22490;SDS011;11412;50.802;4.350;2022-12-29T15:56:31;9.75;;;1.88;;
22490;SDS011;11412;50.802;4.350;2022-12-29T15:58:58;5.88;;;1.58;;
22490;SDS011;11412;50.802;4.350;2022-12-29T16:01:34;5.80;;;1.77;;
22490;SDS011;11412;50.802;4.350;2022-12-29T16:04:05;8.02;;;1.83;;
22490;SDS011;11412;50.802;4.350;2022-12-29T16:06:34;9.02;;;1.60;;
22490;SDS011;11412;50.802;4.350;2022-12-29T16:09:15;6.85;;;1.92;;
22490;SDS011;11412;50.802;4.350;2022-12-29T16:11:46;6.85;;;1.80;;
22490;SDS011;11412;50.802;4.350;2022-12-29T16:14:19;6.85;;;1.92;;
22490;SDS011;11412;50.802;4.350;2022-12-29T16:16:51;9.90;;;2.50;;
22490;SDS011;11412;50.802;4.350;2022-12-29T16:21:48;10.23;;;2.08;;
22490;SDS011;11412;50.802;4.350;2022-12-29T16:24:15;10.90;;;2.53;;
22490;SDS011;11412;50.802;4.350;2022-12-29T16:27:27;7.18;;;2.00;;
22490;SDS011;11412;50.802;4.350;2022-12-29T16:29:32;8.95;;;2.40;;
22490;SDS011;11412;50.802;4.350;2022-12-29T16:31:59;14.65;;;2.42;;
22490;SDS011;11412;50.802;4.350;2022-12-29T16:34:31;12.43;;;2.53;;
22490;SDS011;11412;50.802;4.350;2022-12-29T16:36:59;15.88;;;2.45;;
22490;SDS011;11412;50.802;4.350;2022-12-29T16:39:31;8.95;;;2.65;;
22490;SDS011;11412;50.802;4.350;2022-12-29T16:42:32;15.23;;;3.15;;
22490;SDS011;11412;50.802;4.350;2022-12-29T16:47:45;10.40;;;2.90;;
22490;SDS011;11412;50.802;4.350;2022-12-29T16:50:13;13.93;;;2.83;;
22490;SDS011;11412;50.802;4.350;2022-12-29T16:52:46;10.48;;;2.38;;
22490;SDS011;11412;50.802;4.350;2022-12-29T16:55:17;14.77;;;2.85;;
22490;SDS011;11412;50.802;4.350;2022-12-29T16:57:44;21.10;;;2.72;;
22490;SDS011;11412;50.802;4.350;2022-12-29T17:00:20;11.32;;;2.53;;
22490;SDS011;11412;50.802;4.350;2022-12-29T17:02:47;12.55;;;2.67;;
22490;SDS011;11412;50.802;4.350;2022-12-29T17:05:15;16.58;;;2.88;;
22490;SDS011;11412;50.802;4.350;2022-12-29T17:07:42;14.13;;;2.97;;
22490;SDS011;11412;50.802;4.350;2022-12-29T17:10:09;16.33;;;2.72;;
22490;SDS011;11412;50.802;4.350;2022-12-29T17:12:35;11.32;;;3.40;;
22490;SDS011;11412;50.802;4.350;2022-12-29T17:17:36;15.13;;;2.63;;
22490;SDS011;11412;50.802;4.350;2022-12-29T17:20:15;13.52;;;2.63;;
22490;SDS011;11412;50.802;4.350;2022-12-29T17:22:41;14.85;;;2.75;;
22490;SDS011;11412;50.802;4.350;2022-12-29T17:25:10;13.50;;;2.50;;
22490;SDS011;11412;50.802;4.350;2022-12-29T17:27:49;16.75;;;3.13;;
22490;SDS011;11412;50.802;4.350;2022-12-29T17:30:21;15.02;;;2.45;;
22490;SDS011;11412;50.802;4.350;2022-12-29T17:32:52;14.10;;;2.75;;
22490;SDS011;11412;50.802;4.350;2022-12-29T17:35:21;15.90;;;2.50;;
22490;SDS011;11412;50.802;4.350;2022-12-29T17:37:47;13.15;;;2.90;;
22490;SDS011;11412;50.802;4.350;2022-12-29T17:40:16;14.40;;;2.53;;
22490;SDS011;11412;50.802;4.350;2022-12-29T17:42:47;11.52;;;2.88;;